< Typhoon 199901 1999 Season Typhoon 199903 >
Typhoon 199902 (LEO)
General InformationTrack Information on Google MapsDetailed Wind InformationList of All Images || Disaster Info.ResourceGoogle EarthGE AnimationAtom FeedGeoJSON
Detalied Best Track (Time Zone = UTC)
Year Month Day Hour Lat. Long. Pressure (hPa) Wind (kt) Class Image Chart
1999 4 27 00 13.7 113.1 1002 0 2 Image Chart
1999 4 27 06 14.9 112.7 1002 0 2 Image Chart
1999 4 27 12 16.0 112.3 1002 0 2 Image Chart
1999 4 27 18 16.0 111.4 1000 0 2 Image Chart
1999 4 28 00 15.8 110.5 998 0 2 Image Chart
1999 4 28 06 15.2 110.4 996 35 3 Image Chart
1999 4 28 12 15.7 111.8 996 35 3 Image Chart
1999 4 28 18 16.0 112.3 994 35 3 Image Chart
1999 4 29 00 16.5 113.0 990 45 3 Image Chart
1999 4 29 06 17.3 113.6 990 45 3 Image Chart
1999 4 29 12 17.7 114.1 985 50 4 Image Chart
1999 4 29 18 18.1 114.2 975 60 4 Image Chart
1999 4 30 00 18.3 114.5 970 65 5 Image Chart
1999 4 30 06 19.0 114.8 970 65 5 Image Chart
1999 4 30 12 19.5 115.2 970 65 5 Image Chart
1999 4 30 18 20.0 115.4 970 65 5 Image Chart
1999 5 1 00 20.7 115.7 975 60 4 Image Chart
1999 5 1 06 20.9 115.6 980 55 4 Image Chart
1999 5 1 12 21.0 115.3 985 50 4 Image Chart
1999 5 1 18 21.2 115.0 990 45 3 Image Chart
1999 5 2 00 21.4 114.6 996 40 3 Image Chart
1999 5 2 06 21.9 114.7 1000 0 2 Image Chart
1999 5 2 12 22.5 115.0 1004 0 2 Image Chart
Japan Meteorological Agency Best Track Data | Correction Date : 2005-03-01
< Typhoon 199901 1999 Season Typhoon 199903 >

Help